sensor_id;sensor_type;location;lat;lon;timestamp;P1;durP1;ratioP1;P2;durP2;ratioP2
44706;SDS011;30433;45.596;8.408;2022-10-31T00:11:42;8.68;;;2.90;;
44706;SDS011;30433;45.596;8.408;2022-10-31T00:17:44;7.65;;;2.95;;
44706;SDS011;30433;45.596;8.408;2022-10-31T00:23:46;6.30;;;2.45;;
44706;SDS011;30433;45.596;8.408;2022-10-31T00:29:50;6.00;;;2.20;;
44706;SDS011;30433;45.596;8.408;2022-10-31T00:42:49;5.57;;;2.55;;
44706;SDS011;30433;45.596;8.408;2022-10-31T00:48:52;5.35;;;2.10;;
44706;SDS011;30433;45.596;8.408;2022-10-31T00:54:54;8.00;;;2.28;;
44706;SDS011;30433;45.596;8.408;2022-10-31T01:00:56;6.80;;;2.13;;
44706;SDS011;30433;45.596;8.408;2022-10-31T01:06:59;6.65;;;2.28;;
44706;SDS011;30433;45.596;8.408;2022-10-31T01:13:01;6.75;;;2.55;;
44706;SDS011;30433;45.596;8.408;2022-10-31T01:19:03;8.95;;;2.85;;
44706;SDS011;30433;45.596;8.408;2022-10-31T01:25:07;10.02;;;2.47;;
44706;SDS011;30433;45.596;8.408;2022-10-31T01:31:10;6.20;;;2.22;;
44706;SDS011;30433;45.596;8.408;2022-10-31T01:37:12;6.40;;;2.42;;
44706;SDS011;30433;45.596;8.408;2022-10-31T01:43:16;6.55;;;2.45;;
44706;SDS011;30433;45.596;8.408;2022-10-31T01:49:18;5.57;;;2.28;;
44706;SDS011;30433;45.596;8.408;2022-10-31T01:55:26;4.70;;;2.30;;
44706;SDS011;30433;45.596;8.408;2022-10-31T02:08:30;9.85;;;2.00;;
44706;SDS011;30433;45.596;8.408;2022-10-31T02:14:34;18.48;;;2.28;;
44706;SDS011;30433;45.596;8.408;2022-10-31T02:20:39;4.35;;;1.90;;
44706;SDS011;30433;45.596;8.408;2022-10-31T02:26:53;8.27;;;2.20;;
44706;SDS011;30433;45.596;8.408;2022-10-31T02:33:13;6.35;;;2.45;;
44706;SDS011;30433;45.596;8.408;2022-10-31T02:39:23;7.28;;;3.03;;
44706;SDS011;30433;45.596;8.408;2022-10-31T02:45:28;7.50;;;3.20;;
44706;SDS011;30433;45.596;8.408;2022-10-31T02:51:35;8.90;;;2.20;;
44706;SDS011;30433;45.596;8.408;2022-10-31T02:57:38;6.50;;;2.35;;
44706;SDS011;30433;45.596;8.408;2022-10-31T03:03:46;7.97;;;2.38;;
44706;SDS011;30433;45.596;8.408;2022-10-31T03:10:14;8.00;;;2.67;;
44706;SDS011;30433;45.596;8.408;2022-10-31T03:16:24;8.57;;;1.90;;
44706;SDS011;30433;45.596;8.408;2022-10-31T03:22:31;5.72;;;1.83;;
44706;SDS011;30433;45.596;8.408;2022-10-31T03:28:36;4.50;;;1.80;;
44706;SDS011;30433;45.596;8.408;2022-10-31T03:34:42;7.22;;;1.95;;
44706;SDS011;30433;45.596;8.408;2022-10-31T03:40:46;6.47;;;1.85;;
44706;SDS011;30433;45.596;8.408;2022-10-31T03:46:52;9.32;;;2.10;;
44706;SDS011;30433;45.596;8.408;2022-10-31T03:52:55;6.50;;;1.85;;
44706;SDS011;30433;45.596;8.408;2022-10-31T03:59:04;7.57;;;1.90;;
44706;SDS011;30433;45.596;8.408;2022-10-31T04:12:08;9.23;;;2.22;;
44706;SDS011;30433;45.596;8.408;2022-10-31T04:18:15;7.25;;;1.80;;
44706;SDS011;30433;45.596;8.408;2022-10-31T04:24:17;9.88;;;2.38;;
44706;SDS011;30433;45.596;8.408;2022-10-31T04:30:20;5.78;;;2.10;;
44706;SDS011;30433;45.596;8.408;2022-10-31T04:36:22;6.70;;;2.05;;
44706;SDS011;30433;45.596;8.408;2022-10-31T04:42:24;6.95;;;1.80;;
44706;SDS011;30433;45.596;8.408;2022-10-31T04:48:27;8.02;;;1.92;;
44706;SDS011;30433;45.596;8.408;2022-10-31T04:54:30;5.20;;;1.60;;
44706;SDS011;30433;45.596;8.408;2022-10-31T05:00:32;7.60;;;1.83;;
44706;SDS011;30433;45.596;8.408;2022-10-31T05:13:32;8.25;;;1.98;;
44706;SDS011;30433;45.596;8.408;2022-10-31T05:19:35;7.43;;;2.70;;
44706;SDS011;30433;45.596;8.408;2022-10-31T05:39:33;4.50;;;2.03;;
44706;SDS011;30433;45.596;8.408;2022-10-31T05:45:35;9.18;;;1.63;;
44706;SDS011;30433;45.596;8.408;2022-10-31T05:51:37;4.95;;;2.03;;
44706;SDS011;30433;45.596;8.408;2022-10-31T05:57:40;9.85;;;2.42;;
44706;SDS011;30433;45.596;8.408;2022-10-31T06:03:42;6.32;;;2.10;;
44706;SDS011;30433;45.596;8.408;2022-10-31T06:09:44;14.68;;;2.28;;
44706;SDS011;30433;45.596;8.408;2022-10-31T06:15:48;5.05;;;1.80;;
44706;SDS011;30433;45.596;8.408;2022-10-31T06:21:50;7.72;;;2.53;;
44706;SDS011;30433;45.596;8.408;2022-10-31T06:27:52;12.20;;;3.55;;
44706;SDS011;30433;45.596;8.408;2022-10-31T06:33:55;15.20;;;3.70;;
44706;SDS011;30433;45.596;8.408;2022-10-31T06:39:58;14.95;;;2.97;;
44706;SDS011;30433;45.596;8.408;2022-10-31T06:46:01;9.55;;;3.17;;
44706;SDS011;30433;45.596;8.408;2022-10-31T06:52:05;9.98;;;2.95;;
44706;SDS011;30433;45.596;8.408;2022-10-31T06:58:08;8.40;;;2.30;;
44706;SDS011;30433;45.596;8.408;2022-10-31T07:25:04;12.73;;;2.85;;
44706;SDS011;30433;45.596;8.408;2022-10-31T07:31:07;10.57;;;2.65;;
44706;SDS011;30433;45.596;8.408;2022-10-31T07:37:12;8.30;;;2.05;;
44706;SDS011;30433;45.596;8.408;2022-10-31T07:43:15;9.70;;;2.50;;
44706;SDS011;30433;45.596;8.408;2022-10-31T07:49:17;10.90;;;3.25;;
44706;SDS011;30433;45.596;8.408;2022-10-31T07:55:19;13.35;;;5.25;;
44706;SDS011;30433;45.596;8.408;2022-10-31T08:08:19;11.00;;;3.63;;
44706;SDS011;30433;45.596;8.408;2022-10-31T08:14:21;11.48;;;2.78;;
44706;SDS011;30433;45.596;8.408;2022-10-31T08:20:23;5.35;;;2.03;;
44706;SDS011;30433;45.596;8.408;2022-10-31T08:26:27;8.25;;;2.72;;
44706;SDS011;30433;45.596;8.408;2022-10-31T08:39:26;9.13;;;2.17;;
44706;SDS011;30433;45.596;8.408;2022-10-31T08:45:29;9.35;;;2.45;;
44706;SDS011;30433;45.596;8.408;2022-10-31T08:51:32;14.05;;;2.90;;
44706;SDS011;30433;45.596;8.408;2022-10-31T08:57:34;10.23;;;2.47;;
44706;SDS011;30433;45.596;8.408;2022-10-31T09:03:38;10.55;;;2.78;;
44706;SDS011;30433;45.596;8.408;2022-10-31T09:09:39;6.70;;;2.65;;
44706;SDS011;30433;45.596;8.408;2022-10-31T09:15:42;16.48;;;3.38;;
44706;SDS011;30433;45.596;8.408;2022-10-31T09:21:47;11.70;;;2.75;;
44706;SDS011;30433;45.596;8.408;2022-10-31T09:27:49;14.23;;;2.67;;
44706;SDS011;30433;45.596;8.408;2022-10-31T09:33:52;8.68;;;2.22;;
44706;SDS011;30433;45.596;8.408;2022-10-31T09:39:55;9.45;;;2.90;;
44706;SDS011;30433;45.596;8.408;2022-10-31T09:46:00;5.95;;;1.80;;
44706;SDS011;30433;45.596;8.408;2022-10-31T09:52:09;7.45;;;2.38;;
44706;SDS011;30433;45.596;8.408;2022-10-31T09:58:18;9.13;;;3.03;;
44706;SDS011;30433;45.596;8.408;2022-10-31T10:10:44;6.80;;;1.83;;
44706;SDS011;30433;45.596;8.408;2022-10-31T10:16:55;10.70;;;2.50;;
44706;SDS011;30433;45.596;8.408;2022-10-31T10:23:23;7.35;;;2.42;;
44706;SDS011;30433;45.596;8.408;2022-10-31T10:29:39;6.25;;;2.13;;
44706;SDS011;30433;45.596;8.408;2022-10-31T10:35:47;11.80;;;2.50;;
44706;SDS011;30433;45.596;8.408;2022-10-31T10:41:53;9.98;;;2.50;;
44706;SDS011;30433;45.596;8.408;2022-10-31T10:48:16;8.77;;;2.55;;
44706;SDS011;30433;45.596;8.408;2022-10-31T10:54:43;10.90;;;2.53;;
44706;SDS011;30433;45.596;8.408;2022-10-31T11:00:49;7.53;;;2.10;;
44706;SDS011;30433;45.596;8.408;2022-10-31T11:07:01;8.93;;;2.25;;
44706;SDS011;30433;45.596;8.408;2022-10-31T11:13:19;7.85;;;3.05;;
44706;SDS011;30433;45.596;8.408;2022-10-31T11:19:24;6.53;;;2.15;;
44706;SDS011;30433;45.596;8.408;2022-10-31T11:25:27;11.77;;;2.45;;
44706;SDS011;30433;45.596;8.408;2022-10-31T11:31:31;11.83;;;2.37;;
44706;SDS011;30433;45.596;8.408;2022-10-31T11:37:35;7.78;;;2.67;;
44706;SDS011;30433;45.596;8.408;2022-10-31T11:43:45;7.13;;;2.60;;
44706;SDS011;30433;45.596;8.408;2022-10-31T11:49:52;9.30;;;2.28;;
44706;SDS011;30433;45.596;8.408;2022-10-31T11:56:04;8.15;;;2.85;;
44706;SDS011;30433;45.596;8.408;2022-10-31T12:02:14;8.82;;;2.50;;
44706;SDS011;30433;45.596;8.408;2022-10-31T12:08:21;8.05;;;2.92;;
44706;SDS011;30433;45.596;8.408;2022-10-31T12:14:25;10.35;;;3.28;;
44706;SDS011;30433;45.596;8.408;2022-10-31T12:20:37;7.20;;;2.38;;
44706;SDS011;30433;45.596;8.408;2022-10-31T12:26:48;8.45;;;2.78;;
44706;SDS011;30433;45.596;8.408;2022-10-31T12:33:10;9.20;;;2.47;;
44706;SDS011;30433;45.596;8.408;2022-10-31T12:39:29;7.97;;;2.78;;
44706;SDS011;30433;45.596;8.408;2022-10-31T12:45:43;5.67;;;2.60;;
44706;SDS011;30433;45.596;8.408;2022-10-31T12:51:56;10.73;;;2.75;;
44706;SDS011;30433;45.596;8.408;2022-10-31T12:58:07;8.02;;;2.83;;
44706;SDS011;30433;45.596;8.408;2022-10-31T13:04:17;6.82;;;2.42;;
44706;SDS011;30433;45.596;8.408;2022-10-31T13:10:27;7.38;;;2.53;;
44706;SDS011;30433;45.596;8.408;2022-10-31T13:16:34;9.75;;;2.78;;
44706;SDS011;30433;45.596;8.408;2022-10-31T13:22:40;9.32;;;2.58;;
44706;SDS011;30433;45.596;8.408;2022-10-31T13:28:47;11.05;;;2.78;;
44706;SDS011;30433;45.596;8.408;2022-10-31T13:34:54;8.30;;;2.55;;
44706;SDS011;30433;45.596;8.408;2022-10-31T13:41:01;11.20;;;2.70;;
44706;SDS011;30433;45.596;8.408;2022-10-31T13:47:21;12.88;;;2.78;;
44706;SDS011;30433;45.596;8.408;2022-10-31T13:53:35;10.52;;;3.33;;
44706;SDS011;30433;45.596;8.408;2022-10-31T13:59:45;26.00;;;4.13;;
44706;SDS011;30433;45.596;8.408;2022-10-31T14:05:51;7.32;;;2.25;;
44706;SDS011;30433;45.596;8.408;2022-10-31T14:11:54;18.95;;;8.73;;
44706;SDS011;30433;45.596;8.408;2022-10-31T14:18:00;17.80;;;6.35;;
44706;SDS011;30433;45.596;8.408;2022-10-31T14:24:13;12.68;;;2.90;;
44706;SDS011;30433;45.596;8.408;2022-10-31T14:30:17;10.05;;;2.40;;
44706;SDS011;30433;45.596;8.408;2022-10-31T14:36:25;9.23;;;2.90;;
44706;SDS011;30433;45.596;8.408;2022-10-31T14:42:47;10.73;;;2.63;;
44706;SDS011;30433;45.596;8.408;2022-10-31T14:49:10;10.40;;;2.50;;
44706;SDS011;30433;45.596;8.408;2022-10-31T14:55:22;9.30;;;2.58;;
44706;SDS011;30433;45.596;8.408;2022-10-31T15:01:26;8.95;;;2.28;;
44706;SDS011;30433;45.596;8.408;2022-10-31T15:07:30;11.73;;;2.70;;
44706;SDS011;30433;45.596;8.408;2022-10-31T15:13:40;11.63;;;2.90;;
44706;SDS011;30433;45.596;8.408;2022-10-31T15:19:44;7.72;;;2.08;;
44706;SDS011;30433;45.596;8.408;2022-10-31T15:25:46;12.23;;;2.72;;
44706;SDS011;30433;45.596;8.408;2022-10-31T15:31:50;12.90;;;2.42;;
44706;SDS011;30433;45.596;8.408;2022-10-31T15:37:52;12.23;;;2.90;;
44706;SDS011;30433;45.596;8.408;2022-10-31T15:43:55;11.15;;;2.50;;
44706;SDS011;30433;45.596;8.408;2022-10-31T15:50:03;6.60;;;2.65;;
44706;SDS011;30433;45.596;8.408;2022-10-31T15:56:19;11.13;;;2.85;;
44706;SDS011;30433;45.596;8.408;2022-10-31T16:09:22;10.20;;;2.42;;
44706;SDS011;30433;45.596;8.408;2022-10-31T16:15:25;8.95;;;2.22;;
44706;SDS011;30433;45.596;8.408;2022-10-31T16:21:27;19.08;;;3.20;;
44706;SDS011;30433;45.596;8.408;2022-10-31T16:27:33;11.23;;;2.90;;
44706;SDS011;30433;45.596;8.408;2022-10-31T16:33:37;14.10;;;3.28;;
44706;SDS011;30433;45.596;8.408;2022-10-31T16:46:39;13.02;;;3.00;;
44706;SDS011;30433;45.596;8.408;2022-10-31T16:52:41;13.73;;;4.05;;
44706;SDS011;30433;45.596;8.408;2022-10-31T17:12:28;12.15;;;4.43;;
44706;SDS011;30433;45.596;8.408;2022-10-31T17:39:37;27.08;;;7.78;;
44706;SDS011;30433;45.596;8.408;2022-10-31T17:45:39;21.95;;;6.20;;
44706;SDS011;30433;45.596;8.408;2022-10-31T17:51:42;24.35;;;6.28;;
44706;SDS011;30433;45.596;8.408;2022-10-31T17:57:46;19.87;;;5.03;;
44706;SDS011;30433;45.596;8.408;2022-10-31T18:03:48;18.20;;;5.10;;
44706;SDS011;30433;45.596;8.408;2022-10-31T18:16:48;13.13;;;5.10;;
44706;SDS011;30433;45.596;8.408;2022-10-31T18:22:50;12.60;;;4.57;;
44706;SDS011;30433;45.596;8.408;2022-10-31T18:36:04;9.32;;;4.60;;
44706;SDS011;30433;45.596;8.408;2022-10-31T18:42:07;15.40;;;4.78;;
44706;SDS011;30433;45.596;8.408;2022-10-31T18:55:08;14.60;;;4.97;;
44706;SDS011;30433;45.596;8.408;2022-10-31T19:15:05;12.85;;;4.90;;
44706;SDS011;30433;45.596;8.408;2022-10-31T19:21:08;10.27;;;4.53;;
44706;SDS011;30433;45.596;8.408;2022-10-31T19:34:25;9.98;;;4.97;;
44706;SDS011;30433;45.596;8.408;2022-10-31T19:40:27;11.23;;;4.57;;
44706;SDS011;30433;45.596;8.408;2022-10-31T19:52:51;9.57;;;4.97;;
44706;SDS011;30433;45.596;8.408;2022-10-31T20:05:50;10.77;;;4.88;;
44706;SDS011;30433;45.596;8.408;2022-10-31T20:11:53;12.03;;;4.53;;
44706;SDS011;30433;45.596;8.408;2022-10-31T20:24:52;10.27;;;4.35;;
44706;SDS011;30433;45.596;8.408;2022-10-31T20:45:50;10.02;;;3.55;;
44706;SDS011;30433;45.596;8.408;2022-10-31T20:51:53;8.70;;;4.53;;
44706;SDS011;30433;45.596;8.408;2022-10-31T21:18:49;13.00;;;4.55;;
44706;SDS011;30433;45.596;8.408;2022-10-31T21:24:52;9.80;;;3.88;;
44706;SDS011;30433;45.596;8.408;2022-10-31T21:37:52;8.35;;;3.80;;
44706;SDS011;30433;45.596;8.408;2022-10-31T21:43:57;8.60;;;3.38;;
44706;SDS011;30433;45.596;8.408;2022-10-31T21:56:58;13.60;;;4.45;;
44706;SDS011;30433;45.596;8.408;2022-10-31T22:03:02;6.78;;;4.05;;
44706;SDS011;30433;45.596;8.408;2022-10-31T22:09:05;10.05;;;4.18;;
44706;SDS011;30433;45.596;8.408;2022-10-31T22:15:09;9.30;;;4.05;;
44706;SDS011;30433;45.596;8.408;2022-10-31T22:21:12;14.13;;;4.70;;
44706;SDS011;30433;45.596;8.408;2022-10-31T22:34:14;11.27;;;4.03;;
44706;SDS011;30433;45.596;8.408;2022-10-31T22:40:18;7.90;;;3.17;;
44706;SDS011;30433;45.596;8.408;2022-10-31T22:46:20;8.60;;;3.53;;
44706;SDS011;30433;45.596;8.408;2022-10-31T22:52:25;8.80;;;3.78;;
44706;SDS011;30433;45.596;8.408;2022-10-31T23:05:26;10.40;;;4.32;;
44706;SDS011;30433;45.596;8.408;2022-10-31T23:11:30;12.20;;;3.75;;
44706;SDS011;30433;45.596;8.408;2022-10-31T23:17:33;8.85;;;3.65;;
44706;SDS011;30433;45.596;8.408;2022-10-31T23:23:36;8.88;;;4.25;;
44706;SDS011;30433;45.596;8.408;2022-10-31T23:43:33;9.77;;;3.45;;
44706;SDS011;30433;45.596;8.408;2022-10-31T23:49:41;11.68;;;4.30;;
